Lake of the Forest, Kansas
Current Conditions -  °F | °C
As of 2:53 AM on Friday 31 Oct 2014 (Local Time) from KIXD Reporting Station
Broken Clouds Broken Clouds  
Wind Chill:   Ceiling: 2900
Heat Index:   Visibility: 10mi
Dew Point:   Wind: 22mph
Humidity: 74%   Direction: 350°N
Pressure: 30.27"   Gusts: 30mph
Location:  39.0619°N, 94.8881°W
Report Text: KIXD 310753Z AUTO 35019G26KT 10SM BKN029 09/04 A3027 RMK AO2 PK WND 35026/0753 SLP246 T00890044
Loading
Personal Weather Stations






























Interactive Weather Map
Tropical Storm Tracking
New forecast layout! Learn more

10-Day Weather Forecast

Advertisements
Track Severe Weather on mobile